createdAt,value
2022-09-07T11:25:32.896Z,29.97
2022-09-07T11:26:02.807Z,33.55
2022-09-07T11:27:02.856Z,32.53
2022-09-07T11:28:02.916Z,30.73
2022-09-07T11:30:03.185Z,29.98
2022-09-07T11:31:03.245Z,29.88
2022-09-07T11:32:03.224Z,29.70
2022-09-07T11:34:52.101Z,30.32
2022-09-07T11:36:43.086Z,29.52
2022-09-07T11:39:23.748Z,29.18
2022-09-07T11:40:23.811Z,29.10
2022-09-07T11:41:23.791Z,29.09
2022-09-07T11:43:23.842Z,28.92
2022-09-07T11:44:23.852Z,28.85
2022-09-07T11:45:23.864Z,28.70
2022-09-07T11:46:23.946Z,28.68
2022-09-07T11:50:21.261Z,28.58
2022-09-07T11:51:21.282Z,29.84
2022-09-07T11:52:21.308Z,29.06
2022-09-07T11:53:21.313Z,29.27
2022-09-07T11:54:21.302Z,29.52
2022-09-07T11:55:50.753Z,29.08
2022-09-07T11:56:50.766Z,28.85
2022-09-07T11:57:55.371Z,29.65
2022-09-07T11:58:50.820Z,28.99
2022-09-07T11:59:50.850Z,28.63
2022-09-07T12:00:50.866Z,28.36
2022-09-07T12:01:50.875Z,28.16
2022-09-07T12:03:00.274Z,27.92
2022-09-07T12:03:51.029Z,27.90
2022-09-07T12:04:56.024Z,27.94
2022-09-07T12:05:51.026Z,27.90
2022-09-07T12:06:51.015Z,27.86
2022-09-07T12:07:51.024Z,27.92
2022-09-07T12:08:51.054Z,27.98
2022-09-07T12:09:51.088Z,28.72
2022-09-07T12:10:51.103Z,28.74
2022-09-07T12:11:51.133Z,29.13
2022-09-07T12:12:51.150Z,29.28
2022-09-07T12:13:51.194Z,28.90
2022-09-07T12:14:51.221Z,28.88
2022-09-07T12:15:51.271Z,29.06
2022-09-07T12:16:51.286Z,28.48
2022-09-07T12:17:51.333Z,27.95
2022-09-07T12:18:51.359Z,29.22
2022-09-07T12:19:51.720Z,28.77
2022-09-07T12:20:51.664Z,28.34
2022-09-07T12:21:51.693Z,28.86
2022-09-07T12:22:51.699Z,32.49
2022-09-07T12:35:03.406Z,14.29
2022-09-07T12:36:03.657Z,15.69
2022-09-07T12:37:04.804Z,16.22
2022-09-07T12:38:04.207Z,16.15
2022-09-07T12:39:04.485Z,15.71
2022-09-07T12:40:04.692Z,15.17
2022-09-07T12:41:04.501Z,14.46
2022-09-07T12:43:09.848Z,12.84
2022-09-07T12:44:04.564Z,12.00
2022-09-07T12:45:04.575Z,11.22
2022-09-07T12:46:04.668Z,10.53
2022-09-07T12:47:04.570Z,9.84
2022-09-07T12:48:04.797Z,9.22
2022-09-07T12:49:04.594Z,8.72
2022-09-07T12:50:04.611Z,8.37
2022-09-07T12:51:04.639Z,8.07
2022-09-07T12:52:14.861Z,8.94
2022-09-07T12:53:04.619Z,11.23
2022-09-07T12:54:04.625Z,12.42
2022-09-07T12:55:26.543Z,13.20
2022-09-07T12:56:19.940Z,14.93
2022-09-07T12:57:34.195Z,16.45
2022-09-07T12:58:04.657Z,18.39
2022-09-07T12:59:04.664Z,20.71
2022-09-07T13:00:04.714Z,22.28
2022-09-07T13:01:05.586Z,23.43
2022-09-07T13:02:04.870Z,24.16
2022-09-07T13:03:05.157Z,24.73
2022-09-07T13:04:05.151Z,25.21
2022-09-07T13:05:04.826Z,25.52
2022-09-07T13:06:04.807Z,25.74
2022-09-07T13:07:04.894Z,25.96
2022-09-07T13:08:09.042Z,26.10
2022-09-07T13:09:04.837Z,26.19
2022-09-07T13:10:04.904Z,26.30
2022-09-07T13:11:04.894Z,26.44
2022-09-07T13:12:04.924Z,26.52
2022-09-07T13:13:04.917Z,26.63
2022-09-07T13:14:08.485Z,26.77
2022-09-07T13:15:05.668Z,26.88
2022-09-07T13:16:04.963Z,27.03
2022-09-07T13:17:20.285Z,27.22
2022-09-07T13:18:04.957Z,27.35
2022-09-07T13:19:04.978Z,27.55
2022-09-07T13:20:04.987Z,27.66
2022-09-07T13:21:04.999Z,27.85
2022-09-07T13:22:04.997Z,27.90
2022-09-07T13:23:05.037Z,28.02
2022-09-07T13:24:45.708Z,28.12
2022-09-07T13:25:05.150Z,28.24
2022-09-07T13:26:05.134Z,28.37
2022-09-07T13:27:05.131Z,28.42
2022-09-07T13:28:06.005Z,28.55
2022-09-07T13:29:05.153Z,28.58
2022-09-07T13:30:05.178Z,28.58
2022-09-07T13:31:05.385Z,28.57
2022-09-07T13:32:05.339Z,28.61
2022-09-07T13:33:08.762Z,28.59
2022-09-07T13:34:05.358Z,28.59
2022-09-07T13:35:05.393Z,28.57
2022-09-07T13:36:05.399Z,28.49
2022-09-07T13:37:05.544Z,28.54
2022-09-07T13:38:05.543Z,28.53
2022-09-07T13:39:05.683Z,28.43
2022-09-07T13:40:05.674Z,28.46
2022-09-07T13:41:05.585Z,28.54
2022-09-07T13:42:05.589Z,28.55
2022-09-07T13:43:05.818Z,28.55
2022-09-07T13:44:05.826Z,28.53
2022-09-07T13:45:05.872Z,28.44
2022-09-07T13:46:05.975Z,28.50
2022-09-07T13:47:05.897Z,28.54
2022-09-07T13:48:05.910Z,28.57
2022-09-07T13:49:06.139Z,28.50
2022-09-07T13:50:06.162Z,28.51
2022-09-07T13:51:06.166Z,28.55
2022-09-07T13:52:06.180Z,28.61
2022-09-07T13:53:06.201Z,28.59
2022-09-07T13:54:06.234Z,28.63
2022-09-07T13:55:06.488Z,28.72
